Autumn — V7QA6 — position and weather

sailwx.info

Track history (hours):
 
Tides and Currents Weather Stations Pressure Air Temp Water Temp Dewpoint Dewpoint Depression Visibility Wind Speed Wind Dir Waves Ship Positions

Autumn

Last reported at 2014-Aug-30 23:31 UTC. Time now 2014-Aug-31 00:34 UTC.
Position N 56°02' W 003°42'.

Length 129 m; draft 5.9 m.

Type: Tanker. MMSI: 538003323.

Date/timePositionNaut miles runAvg speedWind from/ knotsBaromVisibWave heightAir tempDewpointWater temp
2014-Aug-30 23:31N 56°02' W 003°42'0 0.0
2014-Aug-30 22:31N 56°02' W 003°42'0 0.0
2014-Aug-30 21:31N 56°02' W 003°42'0 0.0
2014-Aug-30 20:31N 56°02' W 003°42'0 0.0
2014-Aug-30 19:31N 56°02' W 003°42'0 0.0
2014-Aug-30 18:28N 56°02' W 003°42'0 0.0
2014-Aug-30 17:31N 56°02' W 003°42'0 0.0
2014-Aug-30 16:31N 56°02' W 003°42'0 0.0
2014-Aug-30 15:31N 56°02' W 003°42'0 0.0
2014-Aug-30 14:31N 56°02' W 003°42'0 0.0
2014-Aug-30 13:31N 56°02' W 003°42'0 0.0
2014-Aug-30 12:31N 56°02' W 003°42'0 0.0
2014-Aug-30 11:31N 56°02' W 003°42'0 0.0
2014-Aug-30 10:28N 56°02' W 003°42'0 0.0
2014-Aug-30 09:31N 56°02' W 003°42'0 0.0
2014-Aug-30 08:31N 56°02' W 003°42'0 0.0
2014-Aug-30 07:31N 56°02' W 003°42'0 0.0
2014-Aug-30 06:31N 56°02' W 003°42'0 0.0
2014-Aug-30 05:31N 56°02' W 003°42'0 0.0
2014-Aug-30 04:33N 56°02' W 003°42'3 2.7
2014-Aug-30 03:33N 56°02' W 003°37'9 9.5
2014-Aug-30 02:33N 56°01' W 003°20'9 9.4
2014-Aug-30 01:33N 56°05' W 003°04'0 0.0
2014-Aug-30 00:30N 56°05' W 003°04'0 0.0
2014-Aug-29 23:33N 56°05' W 003°04'0 0.0
2014-Aug-29 22:33N 56°05' W 003°04'0 0.0
2014-Aug-29 21:33N 56°05' W 003°04'0 0.0
2014-Aug-29 20:33N 56°05' W 003°04'0 0.0
2014-Aug-29 19:33N 56°05' W 003°04'0 0.0
2014-Aug-29 18:33N 56°05' W 003°04'0 0.0
2014-Aug-29 17:33N 56°05' W 003°04'0 0.0
2014-Aug-29 16:33N 56°05' W 003°04'0 0.0
2014-Aug-29 15:24N 56°05' W 003°04'0 0.0
2014-Aug-29 14:24N 56°05' W 003°04'0 0.0
2014-Aug-29 13:27N 56°05' W 003°04'0 0.0
2014-Aug-29 12:27N 56°05' W 003°04'0 0.0
2014-Aug-29 11:27N 56°05' W 003°04'0 0.0
2014-Aug-29 10:30N 56°05' W 003°04'0 0.0
2014-Aug-29 09:30N 56°05' W 003°04'0 0.0
2014-Aug-29 08:30N 56°05' W 003°04'0 0.0
2014-Aug-29 07:33N 56°05' W 003°04'0 0.0
2014-Aug-29 06:33N 56°05' W 003°04'0 0.0
2014-Aug-29 05:33N 56°05' W 003°04'0 0.1
2014-Aug-29 04:33N 56°05' W 003°05'0 0.0
2014-Aug-29 03:33N 56°05' W 003°05'0 0.0
2014-Aug-29 02:33N 56°05' W 003°05'0 0.0
2014-Aug-29 01:33N 56°05' W 003°05'0 0.0
2014-Aug-29 00:24N 56°05' W 003°05'0 0.0
2014-Aug-28 23:24N 56°05' W 003°05'0 0.1
2014-Aug-28 22:27N 56°05' W 003°05'0 0.1
2014-Aug-28 21:27N 56°05' W 003°04'0 0.0
2014-Aug-28 20:33N 56°05' W 003°04'0 0.0
2014-Aug-28 19:30N 56°05' W 003°04'0 0.0
2014-Aug-28 18:27N 56°05' W 003°04'0 0.0
2014-Aug-28 17:33N 56°05' W 003°04'0 0.0
2014-Aug-28 16:33N 56°05' W 003°04'0 0.0
2014-Aug-28 15:33N 56°05' W 003°04'0 0.0
2014-Aug-28 14:33N 56°05' W 003°04'0 0.2
2014-Aug-28 13:33N 56°04' W 003°05'0 0.0
2014-Aug-28 12:33N 56°04' W 003°05'0 0.0
2014-Aug-28 11:33N 56°04' W 003°05'0 0.1
2014-Aug-28 10:33N 56°05' W 003°05'0 0.1
2014-Aug-28 09:24N 56°05' W 003°05'0 0.0
2014-Aug-28 08:24N 56°05' W 003°04'0 0.1
2014-Aug-28 07:27N 56°05' W 003°04'0 0.1
2014-Aug-28 04:33N 56°04' W 003°05'0 0.0
2014-Aug-28 03:15N 56°04' W 003°05'0 0.0
2014-Aug-28 02:27N 56°04' W 003°05'0 0.0
2014-Aug-28 01:33N 56°04' W 003°05'0 0.0
2014-Aug-28 00:33N 56°04' W 003°05'0 0.0
2014-Aug-27 23:33N 56°04' W 003°05'0 0.0
2014-Aug-27 22:33N 56°04' W 003°05'0 0.0
2014-Aug-27 21:33N 56°04' W 003°05'0 0.0
2014-Aug-27 20:33N 56°04' W 003°05'0 0.0
2014-Aug-27 19:24N 56°05' W 003°05'0 0.0
2014-Aug-27 18:27N 56°05' W 003°05'0 0.0
2014-Aug-27 17:27N 56°04' W 003°05'0 0.0
2014-Aug-27 16:27N 56°04' W 003°05'0 0.0
2014-Aug-27 15:30N 56°04' W 003°05'0 0.0
2014-Aug-27 14:30N 56°04' W 003°05'0 0.0
2014-Aug-27 13:30N 56°04' W 003°05'0 0.0
2014-Aug-27 12:33N 56°04' W 003°05'0 0.0
2014-Aug-27 11:33N 56°04' W 003°05'0 0.0
2014-Aug-27 10:33N 56°04' W 003°05'0 0.0
2014-Aug-27 09:33N 56°04' W 003°05'0 0.1
2014-Aug-27 08:33N 56°05' W 003°04'0 0.0
2014-Aug-27 07:33N 56°04' W 003°04'0 0.0
2014-Aug-27 06:21N 56°05' W 003°04'0 0.0
2014-Aug-27 05:27N 56°04' W 003°04'0 0.0
2014-Aug-27 04:27N 56°04' W 003°04'0 0.0
2014-Aug-27 03:27N 56°04' W 003°04'0 0.1
2014-Aug-27 02:27N 56°04' W 003°05'0 0.0
2014-Aug-27 01:30N 56°04' W 003°05'0 0.0
2014-Aug-27 00:30N 56°04' W 003°05'0 0.0
2014-Aug-26 23:30N 56°04' W 003°05'0 0.0
2014-Aug-26 22:33N 56°04' W 003°05'0 0.0
2014-Aug-26 21:33N 56°04' W 003°05'0 0.0
2014-Aug-26 20:33N 56°04' W 003°05'0 0.0
2014-Aug-26 19:33N 56°04' W 003°05'0 0.1
2014-Aug-26 18:33N 56°05' W 003°04'0 0.1
2014-Aug-26 17:33N 56°05' W 003°05'0 0.1
2014-Aug-26 16:33N 56°04' W 003°05'0 0.0
2014-Aug-26 15:24N 56°04' W 003°05'0 0.0
2014-Aug-26 14:24N 56°04' W 003°05'0 0.0
2014-Aug-26 13:27N 56°04' W 003°05'0 0.0
2014-Aug-26 12:27N 56°04' W 003°05'0 0.0
2014-Aug-26 11:27N 56°04' W 003°05'0 0.0
2014-Aug-26 10:30N 56°04' W 003°05'0 0.0
2014-Aug-26 09:30N 56°04' W 003°05'1 1.0
2014-Aug-26 08:33N 56°04' W 003°03'1312.8
2014-Aug-26 07:33N 56°06' W 002°40'1414.3
2014-Aug-26 06:33N 56°03' W 002°15'1413.8
2014-Aug-26 05:33N 55°56' W 001°54'3313.3
2014-Aug-26 03:06N 55°34' W 001°11'713.1
2014-Aug-26 02:33N 55°27' W 001°10'1413.0
2014-Aug-26 01:28N 55°12' W 001°09'1213.5
2014-Aug-26 00:33N 55°00' W 001°08'1813.7
2014-Aug-25 23:15N 54°42' W 001°08'5 0.6
2014-Aug-25 14:29N 54°37' W 001°09'0 0.0
2014-Aug-25 13:17N 54°37' W 001°09'0 0.0
2014-Aug-25 12:17N 54°37' W 001°09'0 0.0
2014-Aug-25 11:32N 54°37' W 001°09'0 0.0
2014-Aug-25 10:32N 54°37' W 001°09'0 0.0
2014-Aug-25 09:17N 54°37' W 001°09'0 0.0
2014-Aug-25 08:17N 54°37' W 001°09'0 0.0
2014-Aug-25 07:32N 54°37' W 001°09'0 0.0
2014-Aug-25 06:23N 54°37' W 001°10'0 0.0
2014-Aug-25 01:31N 54°37' W 001°09'6 6.0
2014-Aug-25 00:33N 54°42' W 001°04'0 0.0
2014-Aug-24 23:32N 54°42' W 001°04'0 0.1
2014-Aug-24 22:32N 54°42' W 001°04'0 0.0
2014-Aug-24 21:29N 54°42' W 001°04'0 0.0
2014-Aug-24 19:23N 54°42' W 001°04'0 0.0
2014-Aug-24 18:32N 54°42' W 001°04'0 0.0
2014-Aug-24 17:32N 54°42' W 001°04'0 0.1
2014-Aug-24 16:32N 54°42' W 001°04'0 0.0
2014-Aug-24 15:32N 54°42' W 001°04'0 0.0
2014-Aug-24 14:31N 54°42' W 001°04'0 0.0
2014-Aug-24 13:31N 54°42' W 001°04'0 0.0
2014-Aug-24 12:04N 54°42' W 001°04'0 0.0
2014-Aug-24 11:31N 54°42' W 001°04'0 0.0
2014-Aug-24 10:31N 54°42' W 001°04'0 0.1
2014-Aug-24 09:31N 54°42' W 001°04'0 0.0
2014-Aug-24 08:19N 54°42' W 001°04'0 0.0
2014-Aug-24 07:19N 54°42' W 001°04'0 0.1
2014-Aug-24 06:22N 54°42' W 001°03'0 0.0
2014-Aug-24 05:32N 54°42' W 001°03'0 0.0
2014-Aug-24 04:32N 54°42' W 001°03'0 0.0
2014-Aug-24 03:31N 54°42' W 001°03'0 0.0
2014-Aug-24 02:32N 54°42' W 001°03'0 0.0
2014-Aug-24 01:32N 54°42' W 001°03'0 0.0
2014-Aug-24 00:31N 54°42' W 001°03'0 0.0
2014-Aug-23 23:32N 54°42' W 001°03'0 0.0
2014-Aug-23 22:32N 54°42' W 001°03'0 0.1
2014-Aug-23 21:32N 54°42' W 001°04'0 0.0
2014-Aug-23 20:32N 54°42' W 001°04'0 0.1
2014-Aug-23 19:31N 54°42' W 001°04'10 0.6
2014-Aug-23 03:33N 54°39' W 000°47'1211.9
2014-Aug-23 02:33N 54°33' W 000°30'1212.0
2014-Aug-23 01:33N 54°25' W 000°14'1212.3
2014-Aug-23 00:33N 54°16' W 000°00'1312.8
2014-Aug-22 23:33N 54°06' E 000°13'1413.5
2014-Aug-22 22:33N 53°56' E 000°28'1614.5
2014-Aug-22 21:29N 53°43' E 000°44'4013.5
2014-Aug-22 18:33N 53°11' E 001°24'1211.9
2014-Aug-22 17:33N 53°03' E 001°38'1211.7
2014-Aug-22 16:33N 52°57' E 001°55'7712.9
2014-Aug-22 10:33N 52°08' E 003°33'1212.2
2014-Aug-22 09:33N 52°04' E 003°51'1111.3
2014-Aug-22 08:33N 51°58' E 004°07'5 4.5
2014-Aug-22 07:31N 51°55' E 004°13'0 0.0
2014-Aug-22 06:31N 51°55' E 004°13'0 0.0
2014-Aug-22 05:31N 51°55' E 004°13'0 0.0
2014-Aug-22 04:10N 51°55' E 004°13'0 0.0
2014-Aug-22 03:22N 51°55' E 004°13'0 0.0
2014-Aug-22 02:28N 51°55' E 004°13'0 0.0
2014-Aug-22 01:28N 51°55' E 004°13'0 0.0
2014-Aug-22 00:28N 51°55' E 004°13'0 0.0
2014-Aug-21 23:31N 51°55' E 004°13'0 0.0
2014-Aug-21 22:22N 51°55' E 004°13'0 0.0
2014-Aug-21 21:28N 51°55' E 004°13'0 0.0
2014-Aug-21 20:25N 51°55' E 004°13'0 0.0
2014-Aug-21 19:31N 51°55' E 004°13'0 0.0
2014-Aug-21 18:31N 51°55' E 004°13'0 0.0
2014-Aug-21 17:31N 51°55' E 004°13'0 0.0
2014-Aug-21 16:31N 51°55' E 004°13'0 0.0
2014-Aug-21 15:28N 51°55' E 004°13'0 0.0
2014-Aug-21 14:25N 51°55' E 004°13'0 0.0
2014-Aug-21 13:28N 51°55' E 004°13'0 0.3
2014-Aug-21 12:33N 51°55' E 004°13'5 5.0
2014-Aug-21 11:33N 51°57' E 004°05'0 0.1
2014-Aug-21 09:29N 51°57' E 004°05'0 0.0
2014-Aug-21 06:29N 51°57' E 004°05'0 0.0
2014-Aug-21 05:32N 51°57' E 004°05'0 0.0
2014-Aug-21 04:32N 51°57' E 004°05'0 0.0
2014-Aug-21 03:32N 51°57' E 004°05'0 0.0
2014-Aug-21 02:29N 51°57' E 004°05'0 0.0
2014-Aug-21 01:29N 51°57' E 004°05'0 0.0
2014-Aug-21 00:26N 51°57' E 004°05'  
Track history (hours):
 
Tides and Currents Weather Stations Pressure Air Temp Water Temp Dewpoint Dewpoint Depression Visibility Wind Speed Wind Dir Waves Ship Positions

Autumn

Last reported at 2014-Aug-30 23:31 UTC. Time now 2014-Aug-31 00:34 UTC.
Position N 56°02' W 003°42'.

Length 129 m; draft 5.9 m.

Type: Tanker. MMSI: 538003323.

Date/timePositionNaut miles runAvg speedWind from/ knotsBaromVisibWave heightAir tempDewpointWater temp
2014-Aug-30 23:31N 56°02' W 003°42'0 0.0
2014-Aug-30 22:31N 56°02' W 003°42'0 0.0
2014-Aug-30 21:31N 56°02' W 003°42'0 0.0
2014-Aug-30 20:31N 56°02' W 003°42'0 0.0
2014-Aug-30 19:31N 56°02' W 003°42'0 0.0
2014-Aug-30 18:28N 56°02' W 003°42'0 0.0
2014-Aug-30 17:31N 56°02' W 003°42'0 0.0
2014-Aug-30 16:31N 56°02' W 003°42'0 0.0
2014-Aug-30 15:31N 56°02' W 003°42'0 0.0
2014-Aug-30 14:31N 56°02' W 003°42'0 0.0
2014-Aug-30 13:31N 56°02' W 003°42'0 0.0
2014-Aug-30 12:31N 56°02' W 003°42'0 0.0
2014-Aug-30 11:31N 56°02' W 003°42'0 0.0
2014-Aug-30 10:28N 56°02' W 003°42'0 0.0
2014-Aug-30 09:31N 56°02' W 003°42'0 0.0
2014-Aug-30 08:31N 56°02' W 003°42'0 0.0
2014-Aug-30 07:31N 56°02' W 003°42'0 0.0
2014-Aug-30 06:31N 56°02' W 003°42'0 0.0
2014-Aug-30 05:31N 56°02' W 003°42'0 0.0
2014-Aug-30 04:33N 56°02' W 003°42'3 2.7
2014-Aug-30 03:33N 56°02' W 003°37'9 9.5
2014-Aug-30 02:33N 56°01' W 003°20'9 9.4
2014-Aug-30 01:33N 56°05' W 003°04'0 0.0
2014-Aug-30 00:30N 56°05' W 003°04'0 0.0
2014-Aug-29 23:33N 56°05' W 003°04'0 0.0
2014-Aug-29 22:33N 56°05' W 003°04'0 0.0
2014-Aug-29 21:33N 56°05' W 003°04'0 0.0
2014-Aug-29 20:33N 56°05' W 003°04'0 0.0
2014-Aug-29 19:33N 56°05' W 003°04'0 0.0
2014-Aug-29 18:33N 56°05' W 003°04'0 0.0
2014-Aug-29 17:33N 56°05' W 003°04'0 0.0
2014-Aug-29 16:33N 56°05' W 003°04'0 0.0
2014-Aug-29 15:24N 56°05' W 003°04'0 0.0
2014-Aug-29 14:24N 56°05' W 003°04'0 0.0
2014-Aug-29 13:27N 56°05' W 003°04'0 0.0
2014-Aug-29 12:27N 56°05' W 003°04'0 0.0
2014-Aug-29 11:27N 56°05' W 003°04'0 0.0
2014-Aug-29 10:30N 56°05' W 003°04'0 0.0
2014-Aug-29 09:30N 56°05' W 003°04'0 0.0
2014-Aug-29 08:30N 56°05' W 003°04'0 0.0
2014-Aug-29 07:33N 56°05' W 003°04'0 0.0
2014-Aug-29 06:33N 56°05' W 003°04'0 0.0
2014-Aug-29 05:33N 56°05' W 003°04'0 0.1
2014-Aug-29 04:33N 56°05' W 003°05'0 0.0
2014-Aug-29 03:33N 56°05' W 003°05'0 0.0
2014-Aug-29 02:33N 56°05' W 003°05'0 0.0
2014-Aug-29 01:33N 56°05' W 003°05'0 0.0
2014-Aug-29 00:24N 56°05' W 003°05'0 0.0
2014-Aug-28 23:24N 56°05' W 003°05'0 0.1
2014-Aug-28 22:27N 56°05' W 003°05'0 0.1
2014-Aug-28 21:27N 56°05' W 003°04'0 0.0
2014-Aug-28 20:33N 56°05' W 003°04'0 0.0
2014-Aug-28 19:30N 56°05' W 003°04'0 0.0
2014-Aug-28 18:27N 56°05' W 003°04'0 0.0
2014-Aug-28 17:33N 56°05' W 003°04'0 0.0
2014-Aug-28 16:33N 56°05' W 003°04'0 0.0
2014-Aug-28 15:33N 56°05' W 003°04'0 0.0
2014-Aug-28 14:33N 56°05' W 003°04'0 0.2
2014-Aug-28 13:33N 56°04' W 003°05'0 0.0
2014-Aug-28 12:33N 56°04' W 003°05'0 0.0
2014-Aug-28 11:33N 56°04' W 003°05'0 0.1
2014-Aug-28 10:33N 56°05' W 003°05'0 0.1
2014-Aug-28 09:24N 56°05' W 003°05'0 0.0
2014-Aug-28 08:24N 56°05' W 003°04'0 0.1
2014-Aug-28 07:27N 56°05' W 003°04'0 0.1
2014-Aug-28 04:33N 56°04' W 003°05'0 0.0
2014-Aug-28 03:15N 56°04' W 003°05'0 0.0
2014-Aug-28 02:27N 56°04' W 003°05'0 0.0
2014-Aug-28 01:33N 56°04' W 003°05'0 0.0
2014-Aug-28 00:33N 56°04' W 003°05'0 0.0
2014-Aug-27 23:33N 56°04' W 003°05'0 0.0
2014-Aug-27 22:33N 56°04' W 003°05'0 0.0
2014-Aug-27 21:33N 56°04' W 003°05'0 0.0
2014-Aug-27 20:33N 56°04' W 003°05'0 0.0
2014-Aug-27 19:24N 56°05' W 003°05'0 0.0
2014-Aug-27 18:27N 56°05' W 003°05'0 0.0
2014-Aug-27 17:27N 56°04' W 003°05'0 0.0
2014-Aug-27 16:27N 56°04' W 003°05'0 0.0
2014-Aug-27 15:30N 56°04' W 003°05'0 0.0
2014-Aug-27 14:30N 56°04' W 003°05'0 0.0
2014-Aug-27 13:30N 56°04' W 003°05'0 0.0
2014-Aug-27 12:33N 56°04' W 003°05'0 0.0
2014-Aug-27 11:33N 56°04' W 003°05'0 0.0
2014-Aug-27 10:33N 56°04' W 003°05'0 0.0
2014-Aug-27 09:33N 56°04' W 003°05'0 0.1
2014-Aug-27 08:33N 56°05' W 003°04'0 0.0
2014-Aug-27 07:33N 56°04' W 003°04'0 0.0
2014-Aug-27 06:21N 56°05' W 003°04'0 0.0
2014-Aug-27 05:27N 56°04' W 003°04'0 0.0
2014-Aug-27 04:27N 56°04' W 003°04'0 0.0
2014-Aug-27 03:27N 56°04' W 003°04'0 0.1
2014-Aug-27 02:27N 56°04' W 003°05'0 0.0
2014-Aug-27 01:30N 56°04' W 003°05'0 0.0
2014-Aug-27 00:30N 56°04' W 003°05'0 0.0
2014-Aug-26 23:30N 56°04' W 003°05'0 0.0
2014-Aug-26 22:33N 56°04' W 003°05'0 0.0
2014-Aug-26 21:33N 56°04' W 003°05'0 0.0
2014-Aug-26 20:33N 56°04' W 003°05'0 0.0
2014-Aug-26 19:33N 56°04' W 003°05'0 0.1
2014-Aug-26 18:33N 56°05' W 003°04'0 0.1
2014-Aug-26 17:33N 56°05' W 003°05'0 0.1
2014-Aug-26 16:33N 56°04' W 003°05'0 0.0
2014-Aug-26 15:24N 56°04' W 003°05'0 0.0
2014-Aug-26 14:24N 56°04' W 003°05'0 0.0
2014-Aug-26 13:27N 56°04' W 003°05'0 0.0
2014-Aug-26 12:27N 56°04' W 003°05'0 0.0
2014-Aug-26 11:27N 56°04' W 003°05'0 0.0
2014-Aug-26 10:30N 56°04' W 003°05'0 0.0
2014-Aug-26 09:30N 56°04' W 003°05'1 1.0
2014-Aug-26 08:33N 56°04' W 003°03'1312.8
2014-Aug-26 07:33N 56°06' W 002°40'1414.3
2014-Aug-26 06:33N 56°03' W 002°15'1413.8
2014-Aug-26 05:33N 55°56' W 001°54'3313.3
2014-Aug-26 03:06N 55°34' W 001°11'713.1
2014-Aug-26 02:33N 55°27' W 001°10'1413.0
2014-Aug-26 01:28N 55°12' W 001°09'1213.5
2014-Aug-26 00:33N 55°00' W 001°08'1813.7
2014-Aug-25 23:15N 54°42' W 001°08'5 0.6
2014-Aug-25 14:29N 54°37' W 001°09'0 0.0
2014-Aug-25 13:17N 54°37' W 001°09'0 0.0
2014-Aug-25 12:17N 54°37' W 001°09'0 0.0
2014-Aug-25 11:32N 54°37' W 001°09'0 0.0
2014-Aug-25 10:32N 54°37' W 001°09'0 0.0
2014-Aug-25 09:17N 54°37' W 001°09'0 0.0
2014-Aug-25 08:17N 54°37' W 001°09'0 0.0
2014-Aug-25 07:32N 54°37' W 001°09'0 0.0
2014-Aug-25 06:23N 54°37' W 001°10'0 0.0
2014-Aug-25 01:31N 54°37' W 001°09'6 6.0
2014-Aug-25 00:33N 54°42' W 001°04'0 0.0
2014-Aug-24 23:32N 54°42' W 001°04'0 0.1
2014-Aug-24 22:32N 54°42' W 001°04'0 0.0
2014-Aug-24 21:29N 54°42' W 001°04'0 0.0
2014-Aug-24 19:23N 54°42' W 001°04'0 0.0
2014-Aug-24 18:32N 54°42' W 001°04'0 0.0
2014-Aug-24 17:32N 54°42' W 001°04'0 0.1
2014-Aug-24 16:32N 54°42' W 001°04'0 0.0
2014-Aug-24 15:32N 54°42' W 001°04'0 0.0
2014-Aug-24 14:31N 54°42' W 001°04'0 0.0
2014-Aug-24 13:31N 54°42' W 001°04'0 0.0
2014-Aug-24 12:04N 54°42' W 001°04'0 0.0
2014-Aug-24 11:31N 54°42' W 001°04'0 0.0
2014-Aug-24 10:31N 54°42' W 001°04'0 0.1
2014-Aug-24 09:31N 54°42' W 001°04'0 0.0
2014-Aug-24 08:19N 54°42' W 001°04'0 0.0
2014-Aug-24 07:19N 54°42' W 001°04'0 0.1
2014-Aug-24 06:22N 54°42' W 001°03'0 0.0
2014-Aug-24 05:32N 54°42' W 001°03'0 0.0
2014-Aug-24 04:32N 54°42' W 001°03'0 0.0
2014-Aug-24 03:31N 54°42' W 001°03'0 0.0
2014-Aug-24 02:32N 54°42' W 001°03'0 0.0
2014-Aug-24 01:32N 54°42' W 001°03'0 0.0
2014-Aug-24 00:31N 54°42' W 001°03'0 0.0
2014-Aug-23 23:32N 54°42' W 001°03'0 0.0
2014-Aug-23 22:32N 54°42' W 001°03'0 0.1
2014-Aug-23 21:32N 54°42' W 001°04'0 0.0
2014-Aug-23 20:32N 54°42' W 001°04'0 0.1
2014-Aug-23 19:31N 54°42' W 001°04'10 0.6
2014-Aug-23 03:33N 54°39' W 000°47'1211.9
2014-Aug-23 02:33N 54°33' W 000°30'1212.0
2014-Aug-23 01:33N 54°25' W 000°14'1212.3
2014-Aug-23 00:33N 54°16' W 000°00'1312.8
2014-Aug-22 23:33N 54°06' E 000°13'1413.5
2014-Aug-22 22:33N 53°56' E 000°28'1614.5
2014-Aug-22 21:29N 53°43' E 000°44'4013.5
2014-Aug-22 18:33N 53°11' E 001°24'1211.9
2014-Aug-22 17:33N 53°03' E 001°38'1211.7
2014-Aug-22 16:33N 52°57' E 001°55'7712.9
2014-Aug-22 10:33N 52°08' E 003°33'1212.2
2014-Aug-22 09:33N 52°04' E 003°51'1111.3
2014-Aug-22 08:33N 51°58' E 004°07'5 4.5
2014-Aug-22 07:31N 51°55' E 004°13'0 0.0
2014-Aug-22 06:31N 51°55' E 004°13'0 0.0
2014-Aug-22 05:31N 51°55' E 004°13'0 0.0
2014-Aug-22 04:10N 51°55' E 004°13'0 0.0
2014-Aug-22 03:22N 51°55' E 004°13'0 0.0
2014-Aug-22 02:28N 51°55' E 004°13'0 0.0
2014-Aug-22 01:28N 51°55' E 004°13'0 0.0
2014-Aug-22 00:28N 51°55' E 004°13'0 0.0
2014-Aug-21 23:31N 51°55' E 004°13'0 0.0
2014-Aug-21 22:22N 51°55' E 004°13'0 0.0
2014-Aug-21 21:28N 51°55' E 004°13'0 0.0
2014-Aug-21 20:25N 51°55' E 004°13'0 0.0
2014-Aug-21 19:31N 51°55' E 004°13'0 0.0
2014-Aug-21 18:31N 51°55' E 004°13'0 0.0
2014-Aug-21 17:31N 51°55' E 004°13'0 0.0
2014-Aug-21 16:31N 51°55' E 004°13'0 0.0
2014-Aug-21 15:28N 51°55' E 004°13'0 0.0
2014-Aug-21 14:25N 51°55' E 004°13'0 0.0
2014-Aug-21 13:28N 51°55' E 004°13'0 0.3
2014-Aug-21 12:33N 51°55' E 004°13'5 5.0
2014-Aug-21 11:33N 51°57' E 004°05'0 0.1
2014-Aug-21 09:29N 51°57' E 004°05'0 0.0
2014-Aug-21 06:29N 51°57' E 004°05'0 0.0
2014-Aug-21 05:32N 51°57' E 004°05'0 0.0
2014-Aug-21 04:32N 51°57' E 004°05'0 0.0
2014-Aug-21 03:32N 51°57' E 004°05'0 0.0
2014-Aug-21 02:29N 51°57' E 004°05'0 0.0
2014-Aug-21 01:29N 51°57' E 004°05'0 0.0
2014-Aug-21 00:26N 51°57' E 004°05'  

Dump ship's entire track history